Time;durP1;ratioP1;P1;durP2;ratioP2;P2;SDS_P1;SDS_P2;PMS_P1;PMS_P2;Temp;Humidity;BMP_temperature;BMP_pressure;BME280_temperature;BME280_humidity;BME280_pressure;Samples;Min_cycle;Max_cycle;Signal;HPM_P1;HPM_P2
2023/08/14 00:02:22;;;;;;;8.00;5.40;;;;;;;19.24;78.22;95588.06;5042803;28;20225;-75
2023/08/14 00:04:48;;;;;;;7.60;5.63;;;;;;;19.29;78.08;95582.03;5034025;28;20256;-75
2023/08/14 00:07:14;;;;;;;7.23;5.50;;;;;;;19.17;79.00;95579.44;5040838;28;20682;-73
2023/08/14 00:09:39;;;;;;;9.33;5.70;;;;;;;19.14;78.56;95590.53;5045072;28;20267;-74
2023/08/14 00:12:05;;;;;;;10.30;5.60;;;;;;;19.05;78.60;95591.94;5051776;28;20315;-75
2023/08/14 00:14:31;;;;;;;6.80;5.50;;;;;;;19.04;78.83;95594.81;5051641;28;20737;-75
2023/08/14 00:16:56;;;;;;;7.60;5.20;;;;;;;18.95;78.77;95593.56;5044469;28;20815;-74
2023/08/14 00:19:22;;;;;;;7.40;5.40;;;;;;;19.12;77.76;95597.09;5023944;28;20320;-75
2023/08/14 00:21:47;;;;;;;8.37;5.33;;;;;;;19.11;77.63;95600.78;5019037;28;20636;-74
2023/08/14 00:24:13;;;;;;;7.97;5.50;;;;;;;19.05;77.82;95596.44;5044710;28;20255;-74
2023/08/14 00:26:38;;;;;;;7.17;5.60;;;;;;;19.20;77.00;95596.75;5048225;28;20228;-75
2023/08/14 00:29:04;;;;;;;6.50;5.10;;;;;;;19.20;76.76;95596.75;5048699;28;20240;-74
2023/08/14 00:31:30;;;;;;;7.47;5.30;;;;;;;19.32;76.18;95594.84;5048273;28;20315;-75
2023/08/14 00:33:55;;;;;;;6.83;5.10;;;;;;;19.20;76.13;95594.88;5040236;28;20225;-74
2023/08/14 00:36:21;;;;;;;8.50;5.40;;;;;;;19.19;76.54;95603.88;5036305;28;20221;-75
2023/08/14 00:38:46;;;;;;;7.33;5.43;;;;;;;19.16;76.58;95604.34;5040322;28;20246;-73
2023/08/14 00:41:12;;;;;;;9.47;5.30;;;;;;;19.16;74.62;95592.94;5012420;28;20713;-73
2023/08/14 00:43:37;;;;;;;6.23;4.60;;;;;;;19.47;71.55;95601.25;5027844;28;20241;-74
2023/08/14 00:46:03;;;;;;;6.13;4.77;;;;;;;19.68;69.98;95593.69;5025368;28;20221;-74
2023/08/14 00:48:29;;;;;;;5.50;4.53;;;;;;;19.81;68.09;95594.16;5030499;28;20705;-74
2023/08/14 00:50:54;;;;;;;6.10;4.47;;;;;;;19.72;69.68;95598.28;5044742;28;20253;-75
2023/08/14 00:53:20;;;;;;;5.50;4.47;;;;;;;19.59;70.08;95595.09;5045081;28;20294;-74
2023/08/14 00:55:45;;;;;;;8.30;4.60;;;;;;;19.56;70.17;95593.72;5027886;28;20725;-74
2023/08/14 00:58:11;;;;;;;6.70;4.40;;;;;;;19.56;70.21;95593.72;5021869;28;20216;-75
2023/08/14 01:00:36;;;;;;;6.27;4.50;;;;;;;19.45;70.36;95594.59;5048002;28;20225;-74
2023/08/14 01:03:02;;;;;;;7.53;4.87;;;;;;;19.39;70.77;95598.19;5015839;28;20631;-74
2023/08/14 01:05:28;;;;;;;8.90;4.80;;;;;;;19.45;70.43;95599.91;5020679;28;20253;-75
2023/08/14 01:07:53;;;;;;;6.70;4.70;;;;;;;19.46;70.54;95599.66;5026195;28;20686;-74
2023/08/14 01:10:19;;;;;;;6.30;4.80;;;;;;;19.33;71.03;95588.47;5022687;28;20237;-76
2023/08/14 01:13:11;;;;;;;7.60;4.87;;;;;;;19.33;71.07;95594.59;5020478;28;20232;-74
2023/08/14 01:15:40;;;;;;;7.47;5.10;;;;;;;19.24;70.82;95590.72;5061170;28;20236;-74
2023/08/14 01:18:06;;;;;;;7.83;4.57;;;;;;;19.21;71.17;95593.03;5044095;28;21192;-75
2023/08/14 01:20:32;;;;;;;6.70;4.50;;;;;;;19.16;70.49;95599.03;5035116;28;20216;-74
2023/08/14 01:23:03;;;;;;;7.40;4.50;;;;;;;19.17;71.05;95590.06;5032642;28;20336;-70
2023/08/14 01:25:31;;;;;;;7.22;4.82;;;;;;;19.16;71.96;95591.09;5047724;28;20335;-71
2023/08/14 01:27:56;;;;;;;5.90;4.50;;;;;;;19.13;72.49;95580.94;5013679;28;20248;-70
2023/08/14 01:30:22;;;;;;;7.70;4.83;;;;;;;19.12;73.02;95586.50;5001285;28;20229;-70
2023/08/14 01:32:48;;;;;;;5.93;4.80;;;;;;;19.23;72.71;95585.63;5015780;28;20271;-71
2023/08/14 01:35:16;;;;;;;6.13;4.90;;;;;;;19.13;72.65;95582.81;5031074;28;20233;-71
2023/08/14 01:38:13;;;;;;;7.72;4.85;;;;;;;19.30;72.18;95591.59;5030739;28;20228;-75
2023/08/14 01:40:55;;;;;;;6.38;4.40;;;;;;;19.31;71.67;95587.91;5063063;28;20232;-74
2023/08/14 01:43:29;;;;;;;7.03;4.60;;;;;;;19.18;71.62;95588.19;5042770;28;20237;-75
2023/08/14 01:45:55;;;;;;;6.63;4.60;;;;;;;19.13;71.88;95582.81;5039623;28;20705;-75
2023/08/14 01:48:24;;;;;;;6.67;4.33;;;;;;;19.10;71.97;95581.44;5037206;28;20232;-75
2023/08/14 01:50:51;;;;;;;8.60;4.82;;;;;;;19.07;71.67;95578.44;5038470;28;20290;-74
2023/08/14 01:53:17;;;;;;;6.70;4.70;;;;;;;19.05;72.17;95583.97;5016957;28;20230;-74
2023/08/14 01:55:43;;;;;;;7.80;4.50;;;;;;;19.12;71.21;95582.00;5010268;28;20247;-75
2023/08/14 01:58:08;;;;;;;7.53;4.67;;;;;;;19.15;71.32;95580.72;5026672;28;20906;-75
2023/08/14 02:00:34;;;;;;;8.03;4.60;;;;;;;19.03;71.45;95574.63;5017126;28;20252;-74
2023/08/14 02:03:00;;;;;;;7.07;4.73;;;;;;;19.02;71.94;95576.47;5063677;28;20765;-74
2023/08/14 02:05:26;;;;;;;8.93;4.60;;;;;;;18.91;71.82;95581.81;5035518;28;20238;-75
2023/08/14 02:07:51;;;;;;;7.00;4.57;;;;;;;19.07;70.60;95581.88;5031871;28;20232;-75
2023/08/14 02:10:17;;;;;;;5.83;4.30;;;;;;;19.15;70.93;95576.22;5051386;28;20226;-75
2023/08/14 02:12:42;;;;;;;6.43;4.40;;;;;;;19.09;70.96;95574.50;5018221;28;20225;-75
2023/08/14 02:15:08;;;;;;;5.70;4.60;;;;;;;18.90;71.38;95573.06;5027671;28;20294;-75
2023/08/14 02:17:34;;;;;;;6.33;4.23;;;;;;;18.81;71.40;95571.81;5022558;28;20387;-71
2023/08/14 02:19:59;;;;;;;6.03;4.13;;;;;;;18.82;71.64;95576.88;5031165;28;20233;-69
2023/08/14 02:22:25;;;;;;;5.30;4.13;;;;;;;18.78;71.57;95580.22;5024693;28;20224;-71
2023/08/14 02:24:50;;;;;;;6.73;4.53;;;;;;;18.92;70.69;95572.81;5044297;28;20722;-71
2023/08/14 02:27:16;;;;;;;6.83;4.47;;;;;;;19.10;70.06;95576.13;5022127;28;20229;-70
2023/08/14 02:29:42;;;;;;;6.13;4.50;;;;;;;19.15;69.81;95583.38;5027115;28;20229;-70
2023/08/14 02:32:07;;;;;;;6.83;4.50;;;;;;;19.21;69.48;95577.91;5039672;28;20666;-70
2023/08/14 02:34:43;;;;;;;7.27;4.47;;;;;;;19.31;69.01;95582.59;5017965;28;20601;-71
2023/08/14 02:37:09;;;;;;;6.77;4.57;;;;;;;19.23;69.60;95577.66;5037612;28;20232;-70
2023/08/14 02:39:35;;;;;;;7.20;4.60;;;;;;;19.07;69.43;95581.06;5056907;28;20939;-70
2023/08/14 02:42:00;;;;;;;7.10;4.20;;;;;;;18.94;69.32;95581.38;5025611;28;20257;-72
2023/08/14 02:44:26;;;;;;;6.93;3.93;;;;;;;19.10;68.59;95584.09;5010416;28;20232;-70
2023/08/14 02:46:53;;;;;;;5.50;3.90;;;;;;;19.05;69.62;95583.16;5032261;28;20236;-72
2023/08/14 02:49:19;;;;;;;8.07;4.07;;;;;;;18.58;74.18;95587.78;5032241;28;20229;-71
2023/08/14 02:51:44;;;;;;;5.27;4.07;;;;;;;18.58;74.10;95591.22;5057064;28;20221;-71
2023/08/14 02:54:09;;;;;;;8.60;4.38;;;;;;;18.50;74.28;95586.28;5056375;28;20244;-71
2023/08/14 02:56:35;;;;;;;7.30;4.27;;;;;;;18.48;74.42;95591.00;5060937;28;20942;-71
2023/08/14 02:59:01;;;;;;;6.40;4.23;;;;;;;18.46;73.62;95592.28;5028579;28;20233;-70
2023/08/14 03:01:26;;;;;;;5.10;4.03;;;;;;;18.37;73.55;95594.41;5048622;28;20620;-72
2023/08/14 03:03:52;;;;;;;7.23;4.37;;;;;;;18.29;73.77;95586.84;5003640;28;20279;-71
2023/08/14 03:06:17;;;;;;;8.03;4.43;;;;;;;18.36;74.04;95595.47;5032773;28;20945;-72
2023/08/14 03:08:43;;;;;;;8.23;4.50;;;;;;;18.40;74.81;95593.16;5037213;28;20227;-72
2023/08/14 03:11:09;;;;;;;9.67;4.50;;;;;;;18.28;75.73;95587.88;5016020;28;20229;-71
2023/08/14 03:13:34;;;;;;;9.27;5.00;;;;;;;18.43;75.50;95585.56;5019662;28;20221;-71
2023/08/14 03:16:00;;;;;;;6.70;4.70;;;;;;;18.35;75.98;95585.91;5047553;28;20225;-70
2023/08/14 03:18:25;;;;;;;8.83;5.10;;;;;;;18.39;75.44;95586.25;5022546;28;20843;-70
2023/08/14 03:20:51;;;;;;;8.30;4.97;;;;;;;18.28;76.07;95587.03;5015342;28;20229;-70
2023/08/14 03:23:16;;;;;;;6.87;4.90;;;;;;;18.44;75.18;95589.00;5037087;28;20268;-70
2023/08/14 03:25:43;;;;;;;8.53;5.00;;;;;;;18.42;75.74;95589.25;5020726;28;20234;-70
2023/08/14 03:28:08;;;;;;;7.73;4.93;;;;;;;18.50;75.81;95582.81;5044791;28;20225;-71
2023/08/14 03:30:34;;;;;;;8.20;4.80;;;;;;;18.44;75.49;95587.16;5037785;28;20221;-71
2023/08/14 03:32:59;;;;;;;9.40;5.50;;;;;;;18.34;76.14;95584.28;5053028;28;20662;-70
2023/08/14 03:35:25;;;;;;;10.90;4.80;;;;;;;18.35;75.66;95588.56;5046552;28;20890;-70
2023/08/14 03:37:50;;;;;;;8.20;5.20;;;;;;;18.26;75.92;95582.00;5015197;28;20229;-71
2023/08/14 03:40:16;;;;;;;8.87;5.17;;;;;;;18.32;76.12;95590.88;5037130;28;20757;-70
2023/08/14 03:42:41;;;;;;;7.40;5.20;;;;;;;18.31;77.04;95594.53;5021429;28;20387;-69
2023/08/14 03:45:08;;;;;;;10.77;5.60;;;;;;;18.25;77.98;95598.91;5049995;28;20225;-71
2023/08/14 03:47:34;;;;;;;10.97;5.33;;;;;;;18.32;77.55;95589.00;5052351;28;20236;-71
2023/08/14 03:49:59;;;;;;;9.67;5.80;;;;;;;18.29;77.67;95592.13;5031828;28;20225;-71
2023/08/14 03:52:25;;;;;;;9.63;5.70;;;;;;;18.39;77.25;95587.03;5031574;28;20221;-70
2023/08/14 03:54:50;;;;;;;8.30;5.37;;;;;;;18.26;78.52;95597.88;5036360;28;20256;-72
2023/08/14 03:57:16;;;;;;;10.60;5.60;;;;;;;18.06;79.20;95584.16;5045264;28;20240;-71
2023/08/14 03:59:41;;;;;;;10.07;5.67;;;;;;;17.84;80.98;95596.34;5021717;28;20233;-71
2023/08/14 04:02:07;;;;;;;9.80;5.53;;;;;;;17.59;81.86;95590.41;5037278;28;20279;-70
2023/08/14 04:04:32;;;;;;;9.33;5.43;;;;;;;17.69;81.66;95588.03;5030013;28;20236;-71
2023/08/14 04:06:58;;;;;;;7.73;5.67;;;;;;;17.80;81.24;95592.53;5037197;28;20248;-69
2023/08/14 04:09:23;;;;;;;12.23;6.00;;;;;;;17.80;82.08;95592.53;5036727;28;20229;-70
2023/08/14 04:11:49;;;;;;;7.40;5.67;;;;;;;17.83;81.96;95598.19;5012554;28;20244;-71
2023/08/14 04:14:15;;;;;;;11.27;5.80;;;;;;;17.49;83.10;95594.38;5029724;28;20236;-70
2023/08/14 04:16:43;;;;;;;13.03;5.77;;;;;;;17.70;82.15;95600.22;5014913;28;20236;-70
2023/08/14 04:19:13;;;;;;;12.87;6.27;;;;;;;17.97;81.67;95598.78;5015162;28;20245;-71
2023/08/14 04:21:40;;;;;;;9.57;6.33;;;;;;;17.96;81.22;95605.91;5038370;28;20740;-71
2023/08/14 04:24:06;;;;;;;13.30;6.67;;;;;;;18.11;80.63;95605.47;5012667;28;20874;-70
2023/08/14 04:26:32;;;;;;;8.50;6.07;;;;;;;18.21;80.40;95603.06;5028258;28;20225;-70
2023/08/14 04:28:57;;;;;;;10.57;6.60;;;;;;;18.30;79.73;95611.47;5030153;28;20229;-70
2023/08/14 04:31:23;;;;;;;11.13;6.80;;;;;;;18.32;79.71;95615.50;5014076;28;20717;-70
2023/08/14 04:33:48;;;;;;;9.90;6.73;;;;;;;18.23;80.70;95618.72;5028970;28;20695;-69
2023/08/14 04:36:14;;;;;;;12.47;6.90;;;;;;;18.31;79.81;95621.88;5048277;28;20228;-70
2023/08/14 04:38:39;;;;;;;15.27;6.97;;;;;;;18.27;79.19;95614.59;5046948;28;20236;-70
2023/08/14 04:41:05;;;;;;;10.70;6.70;;;;;;;18.39;80.63;95615.41;5030676;28;20236;-70
2023/08/14 04:43:31;;;;;;;10.20;6.40;;;;;;;18.49;79.55;95616.47;5033792;28;20230;-70
2023/08/14 04:45:57;;;;;;;14.43;6.70;;;;;;;18.39;79.58;95621.50;5045433;28;20781;-71
2023/08/14 04:48:23;;;;;;;12.17;7.30;;;;;;;18.43;80.19;95621.84;5019716;28;21160;-69
2023/08/14 04:50:48;;;;;;;15.43;7.83;;;;;;;18.38;80.16;95629.69;5031779;28;20249;-70
2023/08/14 04:53:14;;;;;;;11.47;7.20;;;;;;;18.58;78.93;95630.97;5026766;28;20233;-69
2023/08/14 04:55:39;;;;;;;13.73;7.13;;;;;;;18.58;78.63;95630.97;5013722;28;20229;-71
2023/08/14 04:58:05;;;;;;;12.70;7.67;;;;;;;18.70;77.27;95628.34;5035859;28;20240;-70
2023/08/14 05:00:30;;;;;;;12.33;7.40;;;;;;;18.82;77.93;95635.22;5049220;28;20235;-70
2023/08/14 05:02:56;;;;;;;12.23;7.07;;;;;;;18.71;77.44;95636.06;5031090;28;20858;-70
2023/08/14 05:05:21;;;;;;;13.17;7.40;;;;;;;18.80;76.83;95634.66;5037410;28;20708;-71
2023/08/14 05:07:47;;;;;;;14.53;7.30;;;;;;;18.80;76.01;95632.00;5021795;28;20228;-70
2023/08/14 05:10:12;;;;;;;11.57;7.57;;;;;;;18.91;75.96;95635.69;5019319;28;20244;-70
2023/08/14 05:12:38;;;;;;;12.00;7.03;;;;;;;19.48;73.54;95634.75;5034163;28;20702;-70
2023/08/14 05:15:04;;;;;;;11.47;7.23;;;;;;;21.26;66.07;95634.63;5046929;28;20244;-70
2023/08/14 05:17:30;;;;;;;12.57;6.80;;;;;;;20.67;66.65;95636.22;5018580;28;20244;-71
2023/08/14 05:19:55;;;;;;;10.57;6.57;;;;;;;19.98;69.81;95636.69;5010132;28;20248;-71
2023/08/14 05:22:21;;;;;;;14.43;6.70;;;;;;;20.59;68.31;95635.81;5043242;28;20236;-70
2023/08/14 05:24:47;;;;;;;12.90;6.27;;;;;;;20.22;70.48;95637.34;5033919;28;20323;-71
2023/08/14 05:27:13;;;;;;;9.80;6.53;;;;;;;20.25;70.56;95634.25;5011290;28;20237;-71
2023/08/14 05:29:38;;;;;;;11.03;6.53;;;;;;;20.28;71.75;95636.41;5013308;28;20318;-72
2023/08/14 05:32:04;;;;;;;12.67;6.93;;;;;;;20.50;68.05;95631.97;5051397;28;20885;-77
2023/08/14 05:34:30;;;;;;;10.17;6.80;;;;;;;20.03;71.21;95642.91;5070748;28;20703;-77
2023/08/14 05:36:56;;;;;;;11.40;6.80;;;;;;;19.95;73.10;95637.16;5025347;28;20746;-76
2023/08/14 05:39:21;;;;;;;11.55;7.28;;;;;;;20.70;69.41;95637.59;5054865;28;20263;-76
2023/08/14 05:41:46;;;;;;;9.83;6.40;;;;;;;21.09;66.88;95638.44;5013130;28;20217;-76
2023/08/14 05:44:12;;;;;;;11.23;6.72;;;;;;;22.02;64.00;95635.47;5043477;28;21120;-76
2023/08/14 05:46:38;;;;;;;11.98;6.82;;;;;;;20.97;67.35;95637.72;5046751;28;20217;-77
2023/08/14 05:49:04;;;;;;;10.40;6.57;;;;;;;20.55;69.64;95638.19;5043504;28;20237;-76
2023/08/14 05:51:31;;;;;;;9.55;6.60;;;;;;;20.46;71.44;95649.47;5030942;28;20241;-78
2023/08/14 05:53:56;;;;;;;11.95;7.10;;;;;;;20.42;70.08;95640.38;5064514;28;20319;-77
2023/08/14 05:56:22;;;;;;;12.98;7.10;;;;;;;20.36;70.13;95642.16;5040043;28;21022;-77
2023/08/14 05:58:47;;;;;;;12.75;7.38;;;;;;;20.39;70.59;95644.31;5045877;28;20817;-77
2023/08/14 06:01:13;;;;;;;11.83;7.10;;;;;;;20.53;69.37;95640.28;5029347;28;20228;-77
2023/08/14 06:03:39;;;;;;;12.93;7.10;;;;;;;20.58;70.18;95639.56;5029465;28;20229;-77
2023/08/14 06:06:05;;;;;;;12.05;6.50;;;;;;;20.53;70.78;95639.47;5018093;28;20308;-76
2023/08/14 06:08:31;;;;;;;10.02;6.28;;;;;;;20.61;71.28;95636.41;5029212;28;20278;-75
2023/08/14 06:10:57;;;;;;;12.35;6.63;;;;;;;20.71;69.80;95639.19;5028298;28;20216;-76
2023/08/14 06:13:22;;;;;;;15.45;7.13;;;;;;;20.77;69.83;95643.56;5019531;28;20221;-77
2023/08/14 06:15:48;;;;;;;13.60;7.10;;;;;;;20.84;68.16;95636.19;5033024;28;20330;-74
2023/08/14 06:18:13;;;;;;;11.70;6.72;;;;;;;20.94;68.66;95633.69;5030314;28;20235;-74
2023/08/14 06:20:39;;;;;;;12.23;6.73;;;;;;;20.97;68.17;95630.50;5052499;28;20220;-74
2023/08/14 06:23:04;;;;;;;12.70;6.63;;;;;;;21.03;67.88;95629.53;5051442;28;20225;-74
2023/08/14 06:25:32;;;;;;;13.17;6.40;;;;;;;21.14;67.95;95627.81;5046281;28;20275;-74
2023/08/14 06:28:01;;;;;;;10.73;6.70;;;;;;;21.22;67.11;95630.06;5032592;28;20315;-74
2023/08/14 06:30:26;;;;;;;9.70;6.23;;;;;;;21.18;67.00;95629.75;5034746;28;20221;-75
2023/08/14 06:32:52;;;;;;;9.55;6.35;;;;;;;21.28;66.90;95631.75;5026615;28;20236;-74
2023/08/14 06:35:18;;;;;;;11.75;6.28;;;;;;;21.40;66.18;95635.06;5035414;28;20218;-73
2023/08/14 06:37:43;;;;;;;12.07;6.10;;;;;;;21.53;65.46;95632.00;5041789;28;20237;-75
2023/08/14 06:40:09;;;;;;;11.80;5.45;;;;;;;21.53;65.07;95639.19;5043146;28;23125;-74
2023/08/14 06:42:35;;;;;;;9.70;5.35;;;;;;;21.63;62.47;95629.47;5046384;28;20233;-74
2023/08/14 06:45:03;;;;;;;8.68;5.05;;;;;;;21.76;62.85;95633.56;5033917;28;20229;-75
2023/08/14 06:47:28;;;;;;;6.20;4.60;;;;;;;21.86;61.38;95636.38;5042829;28;20711;-74
2023/08/14 06:49:54;;;;;;;10.95;4.75;;;;;;;21.80;62.15;95638.19;5040036;28;20221;-75
2023/08/14 06:52:19;;;;;;;8.65;4.50;;;;;;;21.94;62.92;95641.25;5038963;28;20241;-75
2023/08/14 06:54:45;;;;;;;5.60;4.30;;;;;;;21.95;62.11;95641.00;5034842;28;20712;-75
2023/08/14 06:57:10;;;;;;;8.80;4.63;;;;;;;22.16;60.13;95642.00;5044997;28;20229;-74
2023/08/14 06:59:36;;;;;;;7.00;4.57;;;;;;;22.24;59.15;95643.38;5041944;28;20248;-74
2023/08/14 07:02:02;;;;;;;7.15;4.72;;;;;;;22.29;60.34;95657.56;5044378;28;20250;-73
2023/08/14 07:04:27;;;;;;;8.77;4.38;;;;;;;22.35;58.86;95648.56;5051396;28;20255;-73
2023/08/14 07:06:53;;;;;;;7.10;4.57;;;;;;;22.38;60.54;95648.03;5024894;28;20328;-74
2023/08/14 07:09:18;;;;;;;6.38;4.50;;;;;;;22.42;60.87;95649.16;5026290;28;20335;-75
2023/08/14 07:11:44;;;;;;;7.78;4.30;;;;;;;22.54;59.88;95641.78;5045394;28;20236;-74
2023/08/14 07:14:10;;;;;;;8.88;4.40;;;;;;;22.73;58.22;95651.00;5034873;28;20240;-74
2023/08/14 07:16:36;;;;;;;13.80;4.38;;;;;;;22.81;57.44;95651.59;5060236;28;20221;-74
2023/08/14 07:19:01;;;;;;;8.07;4.18;;;;;;;22.77;57.97;95649.44;5017049;28;20230;-74
2023/08/14 07:21:27;;;;;;;13.75;4.78;;;;;;;22.99;58.08;95648.47;5025369;28;20229;-74
2023/08/14 07:23:52;;;;;;;7.53;5.07;;;;;;;23.05;57.19;95652.78;5012816;28;20225;-74
2023/08/14 07:26:18;;;;;;;11.27;4.18;;;;;;;23.12;55.97;95653.38;5037621;28;20225;-73
2023/08/14 07:28:44;;;;;;;8.00;5.38;;;;;;;23.10;55.96;95658.97;5049275;28;20679;-75
2023/08/14 07:31:10;;;;;;;6.75;4.30;;;;;;;23.06;57.03;95647.19;5031514;28;20233;-74
2023/08/14 07:33:35;;;;;;;8.32;4.07;;;;;;;23.13;55.79;95654.97;5046554;28;20318;-74
2023/08/14 07:36:01;;;;;;;10.10;4.60;;;;;;;23.25;56.24;95652.88;5030786;28;20221;-75
2023/08/14 07:38:27;;;;;;;7.82;4.00;;;;;;;23.31;52.93;95649.97;5027778;28;20233;-74
2023/08/14 07:40:53;;;;;;;6.03;3.90;;;;;;;23.24;53.92;95653.94;5016691;28;20773;-74
2023/08/14 07:43:19;;;;;;;9.57;3.50;;;;;;;23.29;52.72;95648.63;5044147;28;20697;-74
2023/08/14 07:45:44;;;;;;;4.78;3.60;;;;;;;23.43;51.83;95655.94;5033571;28;20216;-75
2023/08/14 07:48:10;;;;;;;4.35;3.53;;;;;;;23.49;51.43;95648.75;5023675;28;20229;-74
2023/08/14 07:50:36;;;;;;;5.45;3.58;;;;;;;23.48;50.66;95647.13;5049500;28;20221;-75
2023/08/14 07:53:01;;;;;;;7.45;4.05;;;;;;;23.43;52.46;95655.94;5031298;28;20221;-74
2023/08/14 07:55:27;;;;;;;6.65;3.90;;;;;;;23.44;53.55;95644.19;5035113;28;20747;-74
2023/08/14 07:57:53;;;;;;;7.68;3.97;;;;;;;23.55;51.34;95649.56;5012643;28;20239;-75
2023/08/14 08:00:18;;;;;;;6.22;3.83;;;;;;;23.66;51.41;95651.19;5017348;28;20290;-75
2023/08/14 08:02:44;;;;;;;5.60;3.80;;;;;;;23.53;51.41;95655.16;5045630;28;20223;-74
2023/08/14 08:05:09;;;;;;;7.07;4.00;;;;;;;23.53;52.45;95654.34;5030117;28;20244;-74
2023/08/14 08:07:35;;;;;;;7.28;4.00;;;;;;;23.50;53.07;95650.34;5015825;28;20283;-74
2023/08/14 08:10:01;;;;;;;9.50;3.85;;;;;;;23.60;51.52;95660.25;5036957;28;20764;-74
2023/08/14 08:12:27;;;;;;;7.80;3.90;;;;;;;23.69;51.52;95651.47;5027535;28;20282;-74
2023/08/14 08:14:53;;;;;;;8.23;4.00;;;;;;;23.71;51.86;95657.38;5017069;28;20233;-75
2023/08/14 08:17:18;;;;;;;7.03;4.40;;;;;;;23.68;51.65;95657.09;5022515;28;20221;-75
2023/08/14 08:19:46;;;;;;;8.38;5.68;;;;;;;23.68;51.37;95654.41;5032697;28;20732;-74
2023/08/14 08:22:12;;;;;;;10.15;3.90;;;;;;;23.68;51.57;95654.41;5013897;28;20225;-74
2023/08/14 08:24:37;;;;;;;4.60;3.60;;;;;;;23.74;51.95;95654.16;5013210;28;20284;-74
2023/08/14 08:27:03;;;;;;;7.95;3.85;;;;;;;23.76;53.72;95649.38;5068055;28;20240;-75
2023/08/14 08:29:28;;;;;;;6.82;3.90;;;;;;;23.87;52.96;95644.84;5019180;28;20316;-74
2023/08/14 08:31:54;;;;;;;8.23;3.97;;;;;;;24.12;51.55;95641.44;5010366;28;20233;-75
2023/08/14 08:34:20;;;;;;;6.03;3.65;;;;;;;24.35;50.14;95646.25;5019941;28;20221;-75
2023/08/14 08:36:45;;;;;;;6.90;3.65;;;;;;;24.56;49.81;95643.31;5036579;28;20226;-74
2023/08/14 08:39:11;;;;;;;7.22;3.70;;;;;;;24.60;49.84;95639.00;5034237;28;20958;-74
2023/08/14 08:41:38;;;;;;;6.43;3.80;;;;;;;24.69;49.24;95642.75;5037331;28;20221;-74
2023/08/14 08:44:07;;;;;;;5.88;3.55;;;;;;;24.66;48.82;95640.63;5038031;28;20221;-74
2023/08/14 08:46:42;;;;;;;5.40;4.03;;;;;;;24.82;49.23;95630.72;5054012;28;20770;-74
2023/08/14 08:49:08;;;;;;;5.30;3.72;;;;;;;24.91;48.52;95639.00;5021251;28;20313;-74
2023/08/14 08:51:34;;;;;;;5.30;3.67;;;;;;;24.89;49.26;95636.59;5028203;28;20703;-74
2023/08/14 08:54:00;;;;;;;5.13;4.00;;;;;;;24.93;49.05;95635.00;5034999;28;20232;-74
2023/08/14 08:56:26;;;;;;;7.00;3.90;;;;;;;25.02;48.28;95641.38;5068257;28;21009;-74
2023/08/14 08:58:52;;;;;;;8.07;3.70;;;;;;;25.07;47.52;95638.69;5034220;28;20229;-74
2023/08/14 09:01:18;;;;;;;24.38;4.45;;;;;;;25.25;47.57;95631.91;5028954;28;20267;-75
2023/08/14 09:03:45;;;;;;;5.50;3.70;;;;;;;25.33;46.67;95634.84;5017963;28;20308;-73
2023/08/14 09:06:10;;;;;;;5.95;3.75;;;;;;;25.47;47.33;95623.56;5063507;28;20256;-74
2023/08/14 09:08:36;;;;;;;4.88;3.50;;;;;;;25.47;46.11;95624.38;5049618;28;20322;-74
2023/08/14 09:11:02;;;;;;;6.55;3.80;;;;;;;25.58;46.76;95617.09;5061544;28;20669;-75
2023/08/14 09:13:27;;;;;;;7.90;3.60;;;;;;;25.72;44.55;95623.44;5026757;28;20236;-74
2023/08/14 09:15:53;;;;;;;5.22;3.80;;;;;;;25.79;43.24;95621.25;5036148;28;20232;-74
2023/08/14 09:18:18;;;;;;;5.72;3.50;;;;;;;25.79;45.68;95621.25;5030198;28;20303;-75
2023/08/14 09:20:44;;;;;;;6.35;3.58;;;;;;;25.58;43.08;95611.72;5035017;28;20229;-74
2023/08/14 09:23:12;;;;;;;5.13;3.60;;;;;;;25.50;43.73;95607.75;5029665;28;20264;-74
2023/08/14 09:25:40;;;;;;;4.72;3.65;;;;;;;25.84;43.35;95613.97;5035185;28;20877;-75
2023/08/14 09:28:08;;;;;;;7.65;3.50;;;;;;;25.89;43.21;95608.56;5051788;28;20237;-74
2023/08/14 09:30:33;;;;;;;7.03;3.50;;;;;;;25.87;43.71;95609.91;5029349;28;20232;-73
2023/08/14 09:32:59;;;;;;;5.10;3.17;;;;;;;25.90;43.08;95601.31;5011041;28;20687;-71
2023/08/14 09:35:25;;;;;;;5.72;3.42;;;;;;;25.95;44.43;95602.09;5042145;28;20313;-72
2023/08/14 09:37:50;;;;;;;6.38;3.95;;;;;;;26.19;42.55;95601.41;5042942;28;20232;-71
2023/08/14 09:40:16;;;;;;;7.93;3.42;;;;;;;26.19;43.18;95594.16;5045617;28;20229;-72
2023/08/14 09:42:43;;;;;;;9.77;3.58;;;;;;;26.33;42.50;95607.75;5029488;28;20236;-71
2023/08/14 09:45:09;;;;;;;6.40;3.70;;;;;;;26.17;42.89;95592.84;5035167;28;20960;-73
2023/08/14 09:47:34;;;;;;;5.85;3.45;;;;;;;26.41;42.47;95604.47;5022131;28;20274;-72
2023/08/14 09:50:00;;;;;;;7.22;3.70;;;;;;;26.50;41.71;95598.19;5017537;28;20675;-72
2023/08/14 09:52:25;;;;;;;5.13;3.45;;;;;;;26.44;41.53;95596.63;5026794;28;20225;-72
2023/08/14 09:54:51;;;;;;;8.43;3.60;;;;;;;26.59;41.20;95585.75;5031499;28;20237;-71
2023/08/14 09:57:22;;;;;;;4.75;3.50;;;;;;;26.77;42.71;95592.34;5029842;28;20236;-71
2023/08/14 09:59:48;;;;;;;6.38;3.53;;;;;;;26.80;41.71;95590.97;5029363;28;20225;-71
2023/08/14 10:02:15;;;;;;;5.97;3.70;;;;;;;26.79;42.27;95583.97;5046418;28;20670;-72
2023/08/14 10:04:43;;;;;;;6.10;3.40;;;;;;;26.81;41.43;95582.59;5029736;28;20224;-73
2023/08/14 10:07:09;;;;;;;4.85;3.67;;;;;;;26.63;41.18;95583.28;5054068;28;20228;-72
2023/08/14 10:09:37;;;;;;;6.25;3.70;;;;;;;26.43;41.43;95581.63;5029646;28;20233;-70
2023/08/14 10:12:08;;;;;;;5.60;3.50;;;;;;;26.53;43.51;95578.81;5044273;28;20233;-71
2023/08/14 10:14:34;;;;;;;5.70;3.47;;;;;;;26.80;42.07;95580.22;5029851;28;20247;-71
2023/08/14 10:17:00;;;;;;;4.10;3.40;;;;;;;26.80;42.26;95566.78;5022721;28;20221;-72
2023/08/14 10:19:25;;;;;;;6.00;3.40;;;;;;;27.07;42.10;95573.19;5019947;28;20233;-73
2023/08/14 10:21:52;;;;;;;5.45;3.40;;;;;;;27.11;42.15;95570.69;5025991;28;20232;-72
2023/08/14 10:24:17;;;;;;;4.82;3.53;;;;;;;27.28;41.45;95577.22;5036373;28;20320;-72
2023/08/14 10:26:43;;;;;;;5.18;3.90;;;;;;;27.22;41.21;95578.38;5042097;28;20220;-73
2023/08/14 10:29:08;;;;;;;5.72;3.50;;;;;;;27.15;40.71;95569.06;5046949;28;20240;-73
2023/08/14 10:31:34;;;;;;;8.68;3.95;;;;;;;27.39;41.99;95569.88;5032414;28;20228;-70
2023/08/14 10:33:59;;;;;;;6.32;3.72;;;;;;;27.58;42.12;95570.69;5052381;28;20266;-72
2023/08/14 10:36:28;;;;;;;5.82;3.80;;;;;;;27.63;41.58;95565.22;5043179;28;20669;-72
2023/08/14 10:38:54;;;;;;;9.88;3.65;;;;;;;27.74;42.34;95552.41;5027464;28;20317;-71
2023/08/14 10:41:19;;;;;;;5.28;3.67;;;;;;;27.81;40.35;95552.84;5017144;28;20225;-73
2023/08/14 10:43:50;;;;;;;5.25;3.80;;;;;;;27.99;40.73;95557.44;5034599;28;20631;-70
2023/08/14 10:46:16;;;;;;;6.35;3.63;;;;;;;28.10;41.88;95553.50;5037231;28;20814;-72
2023/08/14 10:48:43;;;;;;;5.25;3.80;;;;;;;28.16;42.83;95556.94;5059366;28;20225;-72
2023/08/14 10:51:09;;;;;;;8.07;3.85;;;;;;;28.05;41.22;95553.59;5022160;28;20315;-72
2023/08/14 10:53:35;;;;;;;7.65;4.22;;;;;;;28.09;42.37;95549.19;5048215;28;20229;-72
2023/08/14 10:56:00;;;;;;;5.38;3.78;;;;;;;28.15;40.89;95556.13;5014022;28;20256;-72
2023/08/14 10:58:31;;;;;;;6.65;3.75;;;;;;;28.10;42.41;95550.81;5054180;28;20229;-73
2023/08/14 11:00:56;;;;;;;4.88;3.72;;;;;;;28.08;42.39;95546.81;5067206;28;20230;-72
2023/08/14 11:03:22;;;;;;;8.73;4.40;;;;;;;28.19;41.60;95550.94;5020958;28;20229;-72
2023/08/14 11:05:48;;;;;;;5.65;4.13;;;;;;;28.23;41.15;95550.03;5014102;28;20218;-72
2023/08/14 11:08:13;;;;;;;5.05;3.70;;;;;;;28.22;41.13;95551.16;5032722;28;20230;-71
2023/08/14 11:10:40;;;;;;;6.15;3.80;;;;;;;28.22;40.37;95550.34;5027247;28;20318;-72
2023/08/14 11:13:09;;;;;;;6.93;4.28;;;;;;;28.28;41.20;95546.50;5039905;28;20225;-72
2023/08/14 11:15:35;;;;;;;5.68;3.72;;;;;;;28.31;40.89;95541.31;5023355;28;20240;-73
2023/08/14 11:18:01;;;;;;;6.15;3.70;;;;;;;28.48;39.64;95541.53;5006795;28;20228;-71
2023/08/14 11:20:28;;;;;;;6.43;4.10;;;;;;;28.31;41.00;95543.19;5014300;28;20247;-73
2023/08/14 11:22:54;;;;;;;7.75;5.13;;;;;;;27.96;41.55;95545.34;5012554;28;20738;-71
2023/08/14 11:25:20;;;;;;;6.05;4.25;;;;;;;27.58;43.11;95532.22;5029597;28;20267;-74
2023/08/14 11:27:50;;;;;;;6.85;4.72;;;;;;;27.30;43.54;95523.94;5045737;28;20217;-72